createdAt,value
2018-06-10T00:02:53.630Z,24.77
2018-06-10T00:07:56.839Z,28.07
2018-06-10T00:13:00.266Z,27.77
2018-06-10T00:18:03.477Z,26.53
2018-06-10T00:23:06.640Z,25.43
2018-06-10T00:28:09.991Z,26.13
2018-06-10T00:33:13.398Z,24.33
2018-06-10T00:38:16.559Z,25.37
2018-06-10T00:43:19.739Z,26.30
2018-06-10T00:48:23.164Z,25.90
2018-06-10T00:53:26.523Z,25.77
2018-06-10T00:58:29.823Z,24.37
2018-06-10T01:03:33.024Z,26.10
2018-06-10T01:08:36.226Z,26.00
2018-06-10T01:13:39.646Z,26.37
2018-06-10T01:18:42.937Z,26.23
2018-06-10T01:23:46.161Z,28.67
2018-06-10T01:28:49.407Z,27.43
2018-06-10T01:33:52.965Z,26.47
2018-06-10T01:38:56.132Z,27.50
2018-06-10T01:43:59.708Z,25.13
2018-06-10T01:49:02.878Z,27.73
2018-06-10T01:54:06.144Z,29.90
2018-06-10T01:59:09.530Z,30.17
2018-06-10T02:04:12.672Z,32.67
2018-06-10T02:09:15.895Z,32.60
2018-06-10T02:14:19.002Z,37.50
2018-06-10T02:19:22.313Z,41.67
2018-06-10T02:24:25.770Z,42.57
2018-06-10T02:29:29.076Z,39.20
2018-06-10T02:34:32.495Z,41.37
2018-06-10T02:39:35.731Z,42.47
2018-06-10T02:44:38.937Z,42.10
2018-06-10T02:49:42.412Z,42.93
2018-06-10T02:54:45.534Z,45.13
2018-06-10T02:59:49.009Z,45.60
2018-06-10T03:04:52.692Z,43.00
2018-06-10T03:09:56.676Z,41.73
2018-06-10T03:14:59.980Z,45.60
2018-06-10T03:20:03.234Z,43.63
2018-06-10T03:25:06.793Z,42.17
2018-06-10T03:30:10.024Z,44.37
2018-06-10T03:35:13.200Z,46.33
2018-06-10T03:40:16.353Z,43.83
2018-06-10T03:45:19.644Z,44.87
2018-06-10T03:50:22.955Z,43.23
2018-06-10T03:55:26.638Z,45.40
2018-06-10T04:00:29.840Z,40.97
2018-06-10T04:05:33.138Z,36.37
2018-06-10T04:10:36.230Z,33.33
2018-06-10T04:15:39.475Z,34.37
2018-06-10T04:20:42.801Z,34.87
2018-06-10T04:25:45.947Z,35.10
2018-06-10T04:30:49.315Z,34.17
2018-06-10T04:35:52.501Z,30.57
2018-06-10T04:40:55.822Z,37.83
2018-06-10T04:45:58.983Z,37.70
2018-06-10T04:51:02.568Z,37.57
2018-06-10T04:56:06.067Z,37.53
2018-06-10T05:01:09.256Z,37.07
2018-06-10T05:06:12.439Z,36.50
2018-06-10T05:11:15.803Z,36.30
2018-06-10T05:16:19.212Z,36.60
2018-06-10T05:21:22.625Z,34.97
2018-06-10T05:26:25.713Z,34.23
2018-06-10T05:31:28.891Z,35.57
2018-06-10T05:36:32.151Z,33.70
2018-06-10T05:41:35.458Z,33.50
2018-06-10T05:46:38.601Z,31.47
2018-06-10T05:51:41.860Z,30.83
2018-06-10T05:56:45.083Z,32.13
2018-06-10T06:01:48.587Z,33.60
2018-06-10T06:06:51.682Z,31.40
2018-06-10T06:11:54.997Z,30.73
2018-06-10T06:16:58.255Z,31.10
2018-06-10T06:22:01.478Z,31.17
2018-06-10T06:27:04.786Z,30.07
2018-06-10T06:32:07.946Z,29.43
2018-06-10T06:37:11.443Z,28.70
2018-06-10T06:42:14.836Z,30.83
2018-06-10T06:47:18.168Z,28.93
2018-06-10T06:52:21.746Z,29.20
2018-06-10T06:57:32.085Z,29.00
2018-06-10T07:02:35.436Z,26.40
2018-06-10T07:07:38.803Z,28.27
2018-06-10T07:12:41.980Z,24.90
2018-06-10T07:17:45.152Z,24.47
2018-06-10T07:22:48.319Z,24.97
2018-06-10T07:27:51.537Z,25.53
2018-06-10T07:32:54.898Z,25.63
2018-06-10T07:37:58.304Z,24.70
2018-06-10T07:43:01.729Z,20.80
2018-06-10T07:48:05.446Z,22.40
2018-06-10T07:53:08.796Z,19.63
2018-06-10T07:58:12.275Z,19.80
2018-06-10T08:03:15.458Z,18.17
2018-06-10T08:08:18.879Z,18.80
2018-06-10T08:13:22.169Z,17.63
2018-06-10T08:18:25.226Z,17.97
2018-06-10T08:23:28.584Z,18.30
2018-06-10T08:28:31.714Z,16.57
2018-06-10T08:33:34.876Z,18.90
2018-06-10T08:38:38.338Z,18.40
2018-06-10T08:43:41.554Z,15.10
2018-06-10T08:48:44.741Z,15.33
2018-06-10T08:53:48.024Z,15.37
2018-06-10T08:58:51.203Z,14.50
2018-06-10T09:03:54.442Z,13.80
2018-06-10T09:08:57.589Z,15.03
2018-06-10T09:14:00.827Z,13.47
2018-06-10T09:19:04.295Z,13.40
2018-06-10T09:24:07.542Z,14.33
2018-06-10T09:29:11.150Z,16.47
2018-06-10T09:34:14.534Z,15.33
2018-06-10T09:39:18.058Z,17.97
2018-06-10T09:44:21.076Z,19.20
2018-06-10T09:49:24.635Z,18.00
2018-06-10T09:54:27.829Z,16.60
2018-06-10T09:59:31.014Z,16.97
2018-06-10T10:04:34.235Z,17.47
2018-06-10T10:09:37.460Z,19.23
2018-06-10T10:14:40.666Z,18.40
2018-06-10T10:19:43.845Z,16.37
2018-06-10T10:24:47.395Z,19.30
2018-06-10T10:29:50.696Z,18.87
2018-06-10T10:34:54.018Z,17.20
2018-06-10T10:39:57.378Z,17.60
2018-06-10T10:45:00.755Z,18.20
2018-06-10T10:50:04.235Z,16.40
2018-06-10T10:55:07.563Z,17.03
2018-06-10T11:00:10.997Z,16.40
2018-06-10T11:05:14.372Z,14.67
2018-06-10T11:10:17.811Z,12.80
2018-06-10T11:15:21.111Z,13.53
2018-06-10T11:20:24.431Z,15.57
2018-06-10T11:25:27.714Z,18.63
2018-06-10T11:30:31.652Z,14.90
2018-06-10T11:35:35.293Z,17.50
2018-06-10T11:40:38.692Z,16.50
2018-06-10T11:45:41.968Z,16.33
2018-06-10T11:50:45.156Z,14.87
2018-06-10T11:55:48.375Z,14.00
2018-06-10T12:00:51.539Z,13.07
2018-06-10T12:05:54.739Z,12.13
2018-06-10T12:10:57.983Z,13.07
2018-06-10T12:16:01.436Z,12.07
2018-06-10T12:21:04.570Z,12.70
2018-06-10T12:26:07.943Z,12.87
2018-06-10T12:31:11.100Z,12.17
2018-06-10T12:36:14.281Z,12.37
2018-06-10T12:41:17.418Z,11.90
2018-06-10T12:46:20.899Z,13.57
2018-06-10T12:51:23.984Z,13.13
2018-06-10T12:56:27.138Z,13.30
2018-06-10T13:01:30.289Z,13.20
2018-06-10T13:06:33.566Z,13.03
2018-06-10T13:11:36.830Z,12.70
2018-06-10T13:16:40.036Z,12.10
2018-06-10T13:21:43.192Z,13.40
2018-06-10T13:26:46.269Z,14.90
2018-06-10T13:31:49.375Z,15.23
2018-06-10T13:36:52.567Z,14.97
2018-06-10T13:41:55.847Z,15.37
2018-06-10T13:46:58.940Z,16.67
2018-06-10T13:52:02.748Z,13.03
2018-06-10T13:57:05.901Z,13.60
2018-06-10T14:02:09.295Z,13.73
2018-06-10T14:07:12.353Z,13.53
2018-06-10T14:12:15.540Z,12.80
2018-06-10T14:17:18.701Z,13.57
2018-06-10T14:22:22.099Z,12.23
2018-06-10T14:27:25.408Z,12.50
2018-06-10T14:32:28.734Z,12.53
2018-06-10T14:37:31.812Z,12.03
2018-06-10T14:42:34.979Z,12.33
2018-06-10T14:47:40.226Z,10.83
2018-06-10T14:52:43.326Z,11.50
2018-06-10T14:57:46.802Z,10.30
2018-06-10T15:02:50.034Z,10.43
2018-06-10T15:07:53.213Z,10.70
2018-06-10T15:12:56.453Z,12.00
2018-06-10T15:17:59.726Z,10.00
2018-06-10T15:23:02.928Z,9.73
2018-06-10T15:28:06.364Z,10.30
2018-06-10T15:33:09.510Z,10.03
2018-06-10T15:38:12.749Z,10.37
2018-06-10T15:43:16.065Z,9.53
2018-06-10T15:48:19.382Z,10.87
2018-06-10T15:53:22.638Z,10.27
2018-06-10T15:58:25.865Z,10.10
2018-06-10T16:03:28.893Z,11.23
2018-06-10T16:08:32.068Z,10.73
2018-06-10T16:13:35.088Z,11.90
2018-06-10T16:18:38.441Z,10.87
2018-06-10T16:23:41.644Z,12.27
2018-06-10T16:28:44.962Z,12.47
2018-06-10T16:33:48.131Z,12.20
2018-06-10T16:38:51.679Z,12.30
2018-06-10T16:43:55.075Z,11.37
2018-06-10T16:49:05.988Z,12.00
2018-06-10T16:54:09.311Z,11.73
2018-06-10T16:59:12.801Z,11.80
2018-06-10T17:04:16.335Z,13.80
2018-06-10T17:09:19.805Z,11.80
2018-06-10T17:14:25.712Z,10.60
2018-06-10T17:19:29.087Z,12.30
2018-06-10T17:24:32.657Z,11.80
2018-06-10T17:29:36.222Z,11.03
2018-06-10T17:34:39.705Z,12.20
2018-06-10T17:39:42.971Z,12.07
2018-06-10T17:44:46.475Z,12.00
2018-06-10T17:49:49.723Z,12.93
2018-06-10T17:54:53.158Z,13.57
2018-06-10T17:59:56.337Z,14.30
2018-06-10T18:04:59.775Z,17.63
2018-06-10T18:10:03.429Z,27.00
2018-06-10T18:15:06.836Z,22.17
2018-06-10T18:20:10.327Z,18.30
2018-06-10T18:25:13.645Z,21.20
2018-06-10T18:30:17.039Z,19.27
2018-06-10T18:35:20.275Z,23.93
2018-06-10T18:40:23.502Z,23.50
2018-06-10T18:45:26.863Z,21.00
2018-06-10T18:50:29.984Z,21.73
2018-06-10T18:55:33.298Z,22.20
2018-06-10T19:00:37.913Z,24.40
2018-06-10T19:05:42.418Z,20.87
2018-06-10T19:10:46.534Z,22.57
2018-06-10T19:15:49.926Z,24.23
2018-06-10T19:20:53.965Z,22.93
2018-06-10T19:25:57.334Z,25.13
2018-06-10T19:31:00.523Z,27.30
2018-06-10T19:36:05.232Z,22.43
2018-06-10T19:41:08.396Z,24.23
2018-06-10T19:46:11.783Z,23.80
2018-06-10T19:51:15.124Z,23.83
2018-06-10T19:56:18.675Z,24.23
2018-06-10T20:01:21.984Z,25.43
2018-06-10T20:06:25.479Z,24.20
2018-06-10T20:17:52.094Z,22.80
2018-06-10T20:22:55.471Z,23.13
2018-06-10T20:27:58.760Z,27.00
2018-06-10T20:33:02.095Z,24.10
2018-06-10T20:38:05.844Z,48.77
2018-06-10T20:43:09.167Z,33.43
2018-06-10T20:48:12.440Z,28.97
2018-06-10T20:53:15.648Z,27.37
2018-06-10T20:58:18.880Z,25.50
2018-06-10T21:03:22.063Z,20.47
2018-06-10T21:08:25.239Z,18.80
2018-06-10T21:13:28.739Z,19.70
2018-06-10T21:18:32.492Z,19.97
2018-06-10T21:23:35.685Z,19.33
2018-06-10T21:28:38.788Z,22.30
2018-06-10T21:33:42.165Z,20.07
2018-06-10T21:38:45.591Z,20.23
2018-06-10T21:43:48.742Z,20.67
2018-06-10T21:48:52.294Z,20.43
2018-06-10T21:53:55.607Z,20.57
2018-06-10T21:58:59.263Z,20.40
2018-06-10T22:04:02.699Z,20.00
2018-06-10T22:09:07.308Z,21.90
2018-06-10T22:14:10.708Z,22.20
2018-06-10T22:19:14.309Z,20.57
2018-06-10T22:24:17.618Z,20.40
2018-06-10T22:29:20.869Z,20.60
2018-06-10T22:34:24.655Z,22.10
2018-06-10T22:39:28.163Z,20.63
2018-06-10T22:44:31.488Z,20.43
2018-06-10T22:49:34.683Z,21.50
2018-06-10T22:54:42.458Z,20.27
2018-06-10T22:59:46.011Z,19.87
2018-06-10T23:04:49.111Z,21.00
2018-06-10T23:09:52.261Z,20.17
2018-06-10T23:14:55.484Z,19.50
2018-06-10T23:19:58.949Z,20.70
2018-06-10T23:25:02.118Z,20.33
2018-06-10T23:30:05.426Z,22.82
2018-06-10T23:35:08.627Z,19.67
2018-06-10T23:40:11.783Z,20.00
2018-06-10T23:45:15.070Z,20.40
2018-06-10T23:50:18.490Z,20.50
2018-06-10T23:55:21.727Z,18.07
